Otto, NC (28763)

8:57 AM EDT on May 06, 2015 (GMT -0400)
Otto-Behind Fire Station | | Change Station
CLOSE
Current Station
Personal Weather Station
Location: Otto, NC
Elevation: 2500 ft
Nearby Weather Stations

Elev 2500 ft 35.05 °N, 83.39 °W | Updated 7 minutes ago

Clear
Clear
55.5 °F
Feels Like 55.5 °F
N
0.0
Wind Variable Wind from NNE
Gusts 0.0 mph

Today
High -- | Low -- °F
--% Chance of Precip.
Yesterday
High -- | Low -- °F
Precip. -- in
6:37 AM 8:23 PM
Waning Gibbous, 94% visible
Pressure 30.32 in
Visibility 0.2 miles
Clouds
Dew Point 53 °F
Humidity 90%
Rainfall 0.00 in
Snow Depth Not available.
UV Not available.
Pollen 8.50 out of 12
Air Quality Not available.
Flu Activity No Activity
METAR K1A5 061235Z AUTO 00000KT M1/4SM FG 09/09 A3032 RMK AO2 T00850085

More Conditions Fewer Conditions

Pressure 30.32 in
Visibility 0.2 miles
Clouds
Dew Point 53 °F
Humidity 90%
Rainfall 0.00 in
Snow Depth Not available.
UV Not available.
Pollen 8.50 out of 12
Air Quality Not available.
Flu Activity No Activity
METAR K1A5 061235Z AUTO 00000KT M1/4SM FG 09/09 A3032 RMK AO2 T00850085

More Conditions Fewer Conditions

10-Day Weather Forecast

Almanac

Astronomy

May. 06, 2015 Rise Set
Actual Time
Civil Twilight
Nautical Twilight
Astronomical Twilight
Moon
Length of Visible Light
Length of Day
Tomorrow will be .
, % of the Moon is Illuminated

Today's Extremes

State Highs State Lows

Community

WunderPhotos

Upload Photos

1,818,884 photos uploaded!

WunderBlogs® & News

Nearby

Air Quality

  Air Quality AQ Index Pollutant
Not available.

Snow Depth

Station Depth Elevation

Earthquake Activity

City Distance Mag. Time & Date
Minimum magnitude displayed is 2.5.

Coastal Water Temperatures

Place Temperature

Stations

Nearby Weather Stations

Station Location Temp. Windchill Dew Point Humidity Wind Precip. Elev Updated Type